Flight Track Log - Related Links

Times and Time Zones

All times are in EDT time to prevent confusion due to time zone crossing. See the C-FTOH flight status page for this flight to view local times or setup timezone preferences in your user account.

Time Position Orientation Groundspeed Altitude Reporting Facility
EDT Latitude Longitude Course Direction KTS MPH feet Rate Location/Type
Sun 08:01:37 AM 45.1920 -75.4290 160° South 6,600  Level FlightAware ADS-B
Sun 08:02:00 AM 44.8640 -74.6820 160° South  Level FlightAware Approximate
Sun 08:02:22 AM 45.1530 -75.3610 129° Southeast 290 334 8,500  Level FlightAware ADS-B
Sun 08:02:47 AM 45.1350 -75.3290 129° Southeast 295 339 9,300 1,846 Climbing FlightAware ADS-B
Sun 08:03:27 AM 45.0930 -75.2560 129° Southeast 332 382 10,500 1,835 Climbing FlightAware ADS-B
Sun 08:04:12 AM 45.0520 -75.1640 122° Southeast 359 413 11,900 2,320 Climbing FlightAware ADS-B
Sun 08:04:42 AM 45.0180 -75.1140 134° Southeast 357 411 13,400 2,743 Climbing FlightAware ADS-B
Sun 08:05:22 AM 44.9580 -75.0800 158° South 363 418 15,100 2,329 Climbing FlightAware ADS-B
Sun 08:06:07 AM 44.8860 -75.0360 157° South 379 436 16,700 2,100 Climbing FlightAware ADS-B
Sun 08:06:42 AM 44.8300 -75.0020 157° South 391 450 17,900 2,000 Climbing FlightAware ADS-B
Sun 08:07:22 AM 44.7590 -74.9600 157° South 407 468 19,200 2,000 Climbing FlightAware ADS-B
Sun 08:08:12 AM 44.6770 -74.9110 157° South 417 480 20,900 2,067 Climbing FlightAware ADS-B
Sun 08:08:52 AM 44.6070 -74.8700 157° South 420 483 22,300 1,976 Climbing FlightAware ADS-B
Sun 08:09:37 AM 44.5210 -74.8180 157° South 429 494 23,700 1,694 Climbing FlightAware ADS-B
Sun 08:10:17 AM 44.4520 -74.7780 158° South 438 504 24,700 1,457 Climbing FlightAware ADS-B
Sun 08:10:47 AM 44.3970 -74.7450 157° South 437 503 25,400 1,482 Climbing FlightAware ADS-B
Sun 08:11:42 AM 44.2820 -74.6780 157° South 457 526 26,800 1,400 Climbing FlightAware ADS-B
Sun 08:12:17 AM 44.2160 -74.6390 157° South 463 533 27,500 1,286 Climbing FlightAware ADS-B
Sun 08:12:52 AM 44.1440 -74.5970 157° South 469 540 28,300 1,280 Climbing FlightAware ADS-B
Sun 08:13:32 AM 44.0630 -74.5500 157° South 475 547 29,100 1,275 Climbing FlightAware ADS-B
Sun 08:14:12 AM 43.9840 -74.5040 157° South 476 548 30,000 1,412 Climbing FlightAware ADS-B
Sun 08:14:57 AM 43.8940 -74.4520 157° South 473 544 31,100 1,380 Climbing FlightAware ADS-B
Sun 08:15:52 AM 43.7800 -74.3860 157° South 473 544 32,300 1,263 Climbing FlightAware ADS-B
Sun 08:16:32 AM 43.7000 -74.3400 157° South 472 543 33,100 1,125 Climbing FlightAware ADS-B
Sun 08:17:12 AM 43.6280 -74.2990 158° South 472 543 33,800 635 Climbing FlightAware ADS-B
Sun 08:17:57 AM 43.5320 -74.2450 158° South 472 543 34,000 150 Climbing FlightAware ADS-B
Sun 08:18:32 AM 43.4640 -74.2060 157° South 473 544 34,000  Level FlightAware ADS-B
Sun 08:19:22 AM 43.3570 -74.1450 157° South 472 543 34,000  Level FlightAware ADS-B
Sun 08:20:02 AM 43.2780 -74.1000 157° South 470 541 34,000  Level FlightAware ADS-B
Sun 08:20:47 AM 43.1880 -74.0500 158° South 470 541 34,000  Level FlightAware ADS-B
Sun 08:21:22 AM 43.1230 -74.0120 157° South 470 541 34,000  Level FlightAware ADS-B
Sun 08:22:02 AM 43.0550 -73.9720 157° South 470 541 34,000  Level FlightAware ADS-B
Sun 08:22:52 AM 42.9700 -73.9230 157° South 470 541 34,000  Level FlightAware ADS-B
Sun 08:23:02 AM 42.9660 -73.9250 200° South 34,000  Level FlightAware ADS-B
Sun 08:23:47 AM 42.8380 -73.8520 157° South 471 542 34,000  Level FlightAware ADS-B
Sun 08:24:27 AM 42.7690 -73.8130 157° South 471 542 34,000  Level FlightAware ADS-B
Sun 08:25:07 AM 42.8390 -73.8530 337° Northwest 471 542 34,000  Level FlightAware ADS-B
Sun 08:25:52 AM 42.5660 -73.8060 173° South 460 529 34,000  Level FlightAware ADS-B
Sun 08:26:32 AM 42.4940 -73.8060 180° South 460 529 34,000  Level FlightAware ADS-B
Sun 08:27:12 AM 42.4220 -73.8060 180° South 460 529 34,000  Level FlightAware ADS-B
Sun 08:27:52 AM 42.3490 -73.8060 180° South 460 529 34,000  Level FlightAware ADS-B
Sun 08:28:32 AM 42.2220 -73.8130 182° South 463 533 34,000  Level FlightAware ADS-B
Sun 08:28:53 AM 42.1685 -73.8093 177° South 468 539 34,000  Level FlightAware ADS-B
Sun 08:29:19 AM 42.1145 -73.7901 165° South 475 547 34,000  Level FlightAware ADS-B
Sun 08:29:40 AM 42.0714 -73.7643 156° South 477 549 34,000  Level FlightAware ADS-B
Sun 08:30:23 AM 41.9853 -73.7116 156° South 476 548 34,000  Level FlightAware ADS-B
Sun 08:30:53 AM 41.9253 -73.6751 156° South 477 549 34,000  Level FlightAware ADS-B
Sun 08:31:32 AM 41.8465 -73.6272 156° South 477 549 34,000  Level FlightAware ADS-B
Sun 08:32:03 AM 41.7854 -73.5902 156° South 476 548 34,000  Level FlightAware ADS-B
Sun 08:32:35 AM 41.7203 -73.5507 156° South 476 548 34,000  Level FlightAware ADS-B
Sun 08:33:06 AM 41.6598 -73.5142 156° South 476 548 34,000  Level FlightAware ADS-B
Sun 08:33:37 AM 41.5977 -73.4769 156° South 477 549 34,000  Level FlightAware ADS-B
Sun 08:34:08 AM 41.5345 -73.4389 156° South 478 550 34,000  Level FlightAware ADS-B
Sun 08:34:38 AM 41.4739 -73.4026 156° South 480 552 34,000  Level FlightAware ADS-B
Sun 08:35:08 AM 41.4125 -73.3658 156° South 481 554 34,000  Level FlightAware ADS-B
Sun 08:35:39 AM 41.3508 -73.3288 156° South 483 556 34,000  Level FlightAware ADS-B
Sun 08:36:17 AM 41.2731 -73.2825 156° South 483 556 34,000  Level FlightAware ADS-B
Sun 08:36:48 AM 41.2094 -73.2447 156° South 485 558 34,000  Level FlightAware ADS-B
Sun 08:37:19 AM 41.1464 -73.2073 156° South 487 560 34,000  Level FlightAware ADS-B
Sun 08:37:53 AM 41.0752 -73.1653 156° South 489 563 34,000  Level FlightAware ADS-B
Sun 08:38:32 AM 40.9954 -73.1181 156° South 492 566 34,000  Level FlightAware ADS-B
Sun 08:39:02 AM 40.9326 -73.0809 156° South 494 568 34,000  Level FlightAware ADS-B
Sun 08:39:32 AM 40.8684 -73.0432 156° South 495 570 34,000  Level FlightAware ADS-B
Sun 08:40:03 AM 40.8054 -73.0062 156° South 496 571 34,000  Level FlightAware ADS-B
Sun 08:40:33 AM 40.7426 -72.9694 156° South 496 571 34,000  Level FlightAware ADS-B
Sun 08:41:03 AM 40.6792 -72.9324 156° South 497 572 34,000  Level FlightAware ADS-B
Sun 08:41:34 AM 40.6147 -72.8948 156° South 497 572 34,000  Level FlightAware ADS-B
Sun 08:42:04 AM 40.5500 -72.8570 156° South 498 573 34,000  Level FlightAware ADS-B
Sun 08:42:38 AM 40.4796 -72.8161 156° South 499 574 34,000  Level FlightAware ADS-B
Sun 08:43:13 AM 40.4050 -72.7729 156° South 500 575 34,000  Level FlightAware ADS-B
Sun 08:43:47 AM 40.3329 -72.7312 156° South 502 578 34,000  Level FlightAware ADS-B
Sun 08:44:17 AM 40.2685 -72.6941 156° South 507 583 34,000  Level FlightAware ADS-B
Sun 08:44:51 AM 40.1949 -72.6518 156° South 509 586 34,000  Level FlightAware ADS-B
Sun 08:45:26 AM 40.1197 -72.6086 156° South 511 588 34,000  Level FlightAware ADS-B
Sun 08:45:57 AM 40.0522 -72.5701 156° South 513 590 34,000 95 Level FlightAware ADS-B
Sun 08:46:29 AM 39.9822 -72.5302 156° South 514 592 34,100 346 Climbing FlightAware ADS-B
Sun 08:46:49 AM 39.9395 -72.5096 160° South 511 588 34,300 545 Climbing FlightAware ADS-B
Sun 08:47:02 AM 39.9092 -72.4991 165° South 509 586 34,400 692 Climbing FlightAware ADS-B
Sun 08:47:15 AM 39.8793 -72.4915 169° South 507 583 34,600 818 Climbing FlightAware ADS-B
Sun 08:47:46 AM 39.8064 -72.4764 171° South 509 586 35,000 364 Climbing FlightAware ADS-B
Sun 08:48:21 AM 39.7255 -72.4593 171° South 511 588 35,000  Level FlightAware ADS-B
Sun 08:48:51 AM 39.6546 -72.4442 171° South 512 589 35,000  Level FlightAware ADS-B
Sun 08:49:27 AM 39.5707 -72.4264 171° South 512 589 35,000  Level FlightAware ADS-B
Sun 08:50:24 AM 39.4379 -72.3985 171° South 513 590 35,000  Level FlightAware ADS-B
Sun 08:51:27 AM 39.3010 -72.3700 171° South 506 582 35,000  Level FlightAware ADS-B
Sun 08:51:39 AM 39.2607 -72.3616 171° South 516 594 35,000  Level FlightAware ADS-B
Sun 08:52:10 AM 39.1891 -72.3468 171° South 516 594 35,000  Level FlightAware ADS-B
Sun 08:52:48 AM 39.0988 -72.3282 171° South 517 595 35,000  Level FlightAware ADS-B
Sun 08:53:19 AM 39.0252 -72.3128 171° South 517 595 35,000  Level FlightAware ADS-B
Sun 08:53:52 AM 38.9485 -72.2968 171° South 517 595 35,000  Level FlightAware ADS-B
Sun 08:54:28 AM 38.8637 -72.2792 171° South 517 595 35,000  Level FlightAware ADS-B
Sun 08:55:09 AM 38.7657 -72.2589 171° South 517 595 35,000  Level FlightAware ADS-B
Sun 08:55:40 AM 38.6927 -72.2441 171° South 517 595 35,000  Level FlightAware ADS-B
Sun 08:56:12 AM 38.6186 -72.2289 171° South 518 596 35,000  Level FlightAware ADS-B
Sun 08:56:48 AM 38.5314 -72.2110 171° South 518 596 35,000  Level FlightAware ADS-B
Sun 08:57:24 AM 38.4477 -72.1939 171° South 517 595 35,000  Level FlightAware ADS-B
Sun 08:57:56 AM 38.3722 -72.1785 171° South 516 594 35,000  Level FlightAware ADS-B
Sun 08:58:32 AM 38.2876 -72.1614 171° South 517 595 35,000  Level FlightAware ADS-B
Sun 08:59:03 AM 38.2151 -72.1467 171° South 515 593 35,000  Level FlightAware ADS-B
Sun 08:59:42 AM 38.1483 -72.1431 171° South 520 598 35,000  Level New York Center
Sun 09:00:42 AM 38.0069 -72.1167 172° South 520 598 35,000 -50 Level New York Center
Sun 09:01:43 AM 37.8653 -72.0825 169° South 520 598 34,900  Descending New York Center
Sun 09:02:41 AM 37.7258 -72.0564 172° South 520 598 35,000 51 Climbing New York Center
Sun 09:03:41 AM 37.5950 -72.0250 169° South 512 589 35,000 -50 Level New York Center
Sun 09:04:42 AM 37.4556 -71.9964 171° South 500 575 34,900  Descending New York Center
Sun 09:05:40 AM 37.2994 -71.9650 171° South 506 582 35,000 50 Climbing New York Center
Sun 09:06:42 AM 37.1744 -71.9317 168° South 512 589 35,000  Level New York Center
Sun 09:07:42 AM 37.0392 -71.8933 167° South 512 589 35,000  Level New York Center
Sun 09:08:42 AM 36.8978 -71.8547 168° South 513 590 35,000  Level New York Center
Sun 09:09:41 AM 36.7625 -71.8164 167° South 513 590 35,000  Level New York Center
Sun 09:11:00 AM 36.6037 -71.7737 168° South  Level FlightAware Approximate
Sun 09:18:00 AM 35.7594 -71.5497 168° South  Level FlightAware Approximate
Sun 09:18:43 AM 35.6333 -71.5333 168° South 511 588 35,000  Level New York Oceanic (ODAPS)
Sun 09:19:00 AM 35.6387 -71.5181 168° South  Level FlightAware Approximate
Sun 09:20:00 AM 35.5181 -71.4865 168° South  Level FlightAware Approximate
Sun 09:21:00 AM 35.3974 -71.4551 168° South  Level FlightAware Approximate
Sun 09:22:00 AM 35.2767 -71.4237 168° South  Level FlightAware Approximate
Sun 09:23:00 AM 35.1560 -71.3925 168° South  Level FlightAware Approximate
Sun 09:24:00 AM 34.8492 -71.3334 168° South 511 588 35,000  Level FlightAware Transoceanic
Sun 09:25:00 AM 34.7185 -71.3004 168° South 511 588 35,000  Level FlightAware Transoceanic
Sun 09:26:00 AM 34.5877 -71.2676 168° South 511 588 35,000  Level FlightAware Transoceanic
Sun 09:27:00 AM 34.4570 -71.2348 168° South 511 588 35,000  Level FlightAware Transoceanic
Sun 09:28:00 AM 34.3262 -71.2022 168° South 511 588 35,000  Level FlightAware Transoceanic
Sun 09:29:00 AM 34.1955 -71.1696 168° South 511 588 35,000  Level FlightAware Transoceanic
Sun 09:30:00 AM 34.0647 -71.1372 168° South 511 588 35,000  Level FlightAware Transoceanic
Sun 09:31:00 AM 33.9339 -71.1049 168° South 511 588 35,000  Level FlightAware Transoceanic
Sun 09:32:00 AM 33.8031 -71.0726 168° South 511 588 35,000  Level FlightAware Transoceanic
Sun 09:33:00 AM 33.6724 -71.0405 168° South 511 588 35,000  Level FlightAware Transoceanic
Sun 09:33:43 AM 33.6833 -71.0333 169° South 482 555 35,000  Level New York Oceanic (ODAPS)
Sun 09:34:00 AM 33.5415 -71.0084 168° South 511 588 35,000  Level FlightAware Transoceanic
Sun 09:35:00 AM 33.4107 -70.9765 168° South 511 588 35,000  Level FlightAware Transoceanic
Sun 09:36:00 AM 33.2799 -70.9446 169° South 511 588 35,000  Level FlightAware Transoceanic
Sun 09:37:00 AM 33.1491 -70.9128 169° South 511 588 35,000  Level FlightAware Transoceanic
Sun 09:38:00 AM 33.0183 -70.8812 169° South 511 588 35,000  Level FlightAware Transoceanic
Sun 09:39:00 AM 32.8874 -70.8496 169° South 511 588 35,000  Level FlightAware Transoceanic
Sun 09:40:00 AM 32.6332 -70.7819 169° South 482 555 35,000  Level FlightAware Transoceanic
Sun 09:41:00 AM 32.5019 -70.7509 169° South 482 555 35,000  Level FlightAware Transoceanic
Sun 09:42:00 AM 32.3706 -70.7200 169° South 482 555 35,000  Level FlightAware Transoceanic
Sun 09:43:00 AM 32.2392 -70.6892 169° South 482 555 35,000  Level FlightAware Transoceanic
Sun 09:44:00 AM 32.1079 -70.6585 169° South 482 555 35,000  Level FlightAware Transoceanic
Sun 09:45:00 AM 31.9766 -70.6278 169° South 482 555 35,000  Level FlightAware Transoceanic
Sun 09:46:00 AM 31.8452 -70.5973 169° South 482 555 35,000  Level FlightAware Transoceanic
Sun 09:47:00 AM 31.7139 -70.5668 169° South 482 555 35,000  Level FlightAware Transoceanic
Sun 09:48:00 AM 31.5825 -70.5364 169° South 482 555 35,000  Level FlightAware Transoceanic
Sun 09:49:00 AM 31.4512 -70.5061 169° South 482 555 35,000  Level FlightAware Transoceanic
Sun 09:50:00 AM 31.3198 -70.4759 169° South 482 555 35,000  Level FlightAware Transoceanic
Sun 09:51:00 AM 31.1884 -70.4457 169° South 482 555 35,000  Level FlightAware Transoceanic
Sun 09:52:00 AM 31.0570 -70.4157 169° South 482 555 35,000  Level FlightAware Transoceanic
Sun 09:53:00 AM 30.9256 -70.3857 169° South 482 555 35,000  Level FlightAware Transoceanic
Sun 09:54:00 AM 30.7942 -70.3558 169° South 482 555 35,000  Level FlightAware Transoceanic
Sun 09:55:00 AM 30.6628 -70.3260 169° South 482 555 35,000  Level FlightAware Transoceanic
Sun 09:56:00 AM 30.5314 -70.2963 169° South 482 555 35,000  Level FlightAware Transoceanic
Sun 09:57:00 AM 30.4000 -70.2667 169° South 482 555 35,000  Level FlightAware Transoceanic
Sun 09:58:00 AM 30.2731 -70.2375 169° South 482 555 35,000  Level FlightAware Transoceanic
Sun 09:59:00 AM 30.1461 -70.2085 169° South 482 555 35,000  Level FlightAware Transoceanic
Sun 09:59:50 AM 30.4000 -70.2667 169° South 462 532 35,000  Level New York Oceanic (ODAPS)
Sun 10:00:00 AM 30.0192 -70.1795 169° South 482 555 35,000  Level FlightAware Transoceanic
Sun 10:01:00 AM 29.8923 -70.1505 169° South 482 555 35,000  Level FlightAware Transoceanic
Sun 10:02:00 AM 29.7653 -70.1217 169° South 482 555 35,000  Level FlightAware Transoceanic
Sun 10:03:00 AM 29.6383 -70.0929 169° South 482 555 35,000  Level FlightAware Transoceanic
Sun 10:04:00 AM 29.5114 -70.0642 169° South 482 555 35,000  Level FlightAware Transoceanic
Sun 10:05:00 AM 29.3844 -70.0356 169° South 482 555 35,000  Level FlightAware Transoceanic
Sun 10:06:00 AM 29.2574 -70.0070 169° South 462 532 35,000  Level FlightAware Transoceanic
Sun 10:07:00 AM 29.1304 -69.9785 169° South 462 532 35,000  Level FlightAware Transoceanic
Sun 10:08:00 AM 29.0035 -69.9501 169° South 462 532 35,000  Level FlightAware Transoceanic
Sun 10:09:00 AM 28.8765 -69.9218 169° South 462 532 35,000  Level FlightAware Transoceanic
Sun 10:10:00 AM 28.7495 -69.8935 169° South 462 532 35,000  Level FlightAware Transoceanic
Sun 10:11:00 AM 28.6224 -69.8653 169° South 462 532 35,000  Level FlightAware Transoceanic
Sun 10:12:00 AM 28.4954 -69.8371 169° South 462 532 35,000  Level FlightAware Transoceanic
Sun 10:13:00 AM 28.3684 -69.8091 169° South 462 532 35,000  Level FlightAware Transoceanic
Sun 10:14:00 AM 28.2414 -69.7810 169° South 462 532 35,000  Level FlightAware Transoceanic
Sun 10:15:00 AM 28.1144 -69.7531 169° South 462 532 35,000  Level FlightAware Transoceanic
Sun 10:16:00 AM 27.9873 -69.7252 169° South 462 532 35,000  Level FlightAware Transoceanic
Sun 10:17:00 AM 27.8603 -69.6974 169° South 462 532 35,000  Level FlightAware Transoceanic
Sun 10:18:00 AM 27.7332 -69.6697 169° South 462 532 35,000  Level FlightAware Transoceanic
Sun 10:19:00 AM 27.6062 -69.6420 169° South 462 532 35,000  Level FlightAware Transoceanic
Sun 10:20:00 AM 27.4791 -69.6144 169° South 462 532 35,000  Level FlightAware Transoceanic
Sun 10:21:00 AM 27.3521 -69.5868 169° South 462 532 35,000  Level FlightAware Transoceanic
Sun 10:22:00 AM 27.2250 -69.5593 169° South 462 532 35,000  Level FlightAware Transoceanic
Sun 10:23:00 AM 27.0979 -69.5319 169° South 462 532 35,000  Level FlightAware Transoceanic
Sun 10:24:00 AM 26.9708 -69.5045 169° South 462 532 35,000  Level FlightAware Transoceanic
Sun 10:25:00 AM 26.8438 -69.4772 169° South 462 532 35,000  Level FlightAware Transoceanic
Sun 10:26:00 AM 26.7167 -69.4500 170° South 462 532 35,000  Level FlightAware Transoceanic
Sun 10:27:00 AM 26.5941 -69.4247 170° South 462 532 35,000  Level FlightAware Transoceanic
Sun 10:27:14 AM 26.7167 -69.4500 170° South 449 517 35,000  Level New York Oceanic (ODAPS)
Sun 10:28:00 AM 26.4715 -69.3994 170° South 462 532 35,000  Level FlightAware Transoceanic
Sun 10:29:00 AM 26.3489 -69.3741 170° South 462 532 35,000  Level FlightAware Transoceanic
Sun 10:30:00 AM 26.2263 -69.3490 170° South 462 532 35,000  Level FlightAware Transoceanic
Sun 10:31:00 AM 26.1037 -69.3238 170° South 462 532 35,000  Level FlightAware Transoceanic
Sun 10:32:00 AM 25.9811 -69.2988 170° South 462 532 35,000  Level FlightAware Transoceanic
Sun 10:33:00 AM 25.8584 -69.2737 170° South 449 517 35,000  Level FlightAware Transoceanic
Sun 10:34:00 AM 25.7358 -69.2488 170° South 449 517 35,000  Level FlightAware Transoceanic
Sun 10:35:00 AM 25.6132 -69.2238 170° South 449 517 35,000  Level FlightAware Transoceanic
Sun 10:36:00 AM 25.4906 -69.1990 170° South 449 517 35,000  Level FlightAware Transoceanic
Sun 10:37:00 AM 25.3679 -69.1741 170° South 449 517 35,000  Level FlightAware Transoceanic
Sun 10:38:00 AM 25.2453 -69.1494 170° South 449 517 35,000  Level FlightAware Transoceanic
Sun 10:39:00 AM 25.1227 -69.1247 170° South 449 517 35,000  Level FlightAware Transoceanic
Sun 10:39:39 AM 25.0419 -69.1086 167° South 447 514 35,000  Level Miami Center
Sun 10:40:00 AM 25.0000 -69.1000 167° South 449 517 35,000  Level FlightAware Transoceanic
Sun 10:40:39 AM 24.9150 -69.0731 166° South 455 524 35,000  Level Miami Center
Sun 10:41:00 AM 24.8796 -69.0700 167° South 449 517 35,000  Level FlightAware Transoceanic
Sun 10:41:39 AM 24.7922 -69.0422 167° South 455 524 35,000  Level Miami Center
Sun 10:42:00 AM 24.7592 -69.0401 167° South 449 517 35,000  Level FlightAware Transoceanic
Sun 10:42:39 AM 24.6653 -69.0069 166° South 460 529 35,000  Level Miami Center
Sun 10:43:00 AM 24.6388 -69.0103 167° South 449 517 35,000  Level FlightAware Transoceanic
Sun 10:43:39 AM 24.5431 -68.9803 169° South 455 524 35,000  Level Miami Center
Sun 10:44:00 AM 24.5184 -68.9805 167° South 449 517 35,000  Level FlightAware Transoceanic
Sun 10:44:39 AM 24.4331 -68.9556 168° South 450 518 35,000  Level Miami Center
Sun 10:45:00 AM 24.3980 -68.9508 167° South 449 517 35,000  Level FlightAware Transoceanic
Sun 10:45:39 AM 24.3150 -68.9289 168° South 450 518 35,000  Level Miami Center
Sun 10:46:39 AM 24.1878 -68.8917 165° South 455 524 35,000  Level Miami Center
Sun 10:47:39 AM 24.0653 -68.8608 167° South 455 524 35,000  Level Miami Center
Sun 10:48:39 AM 23.9428 -68.8322 168° South 455 524 35,000  Level Miami Center
Sun 10:49:39 AM 23.8181 -68.8017 167° South 455 524 35,000  Level Miami Center
Sun 10:50:39 AM 23.6978 -68.7708 167° South 455 524 35,000  Level Miami Center
Sun 10:51:39 AM 23.5772 -68.7422 168° South 455 524 35,000  Level Miami Center
Sun 10:52:39 AM 23.4569 -68.7139 168° South 454 522 35,000  Level Miami Center
Sun 10:53:39 AM 23.3342 -68.6833 167° South 454 522 35,000  Level Miami Center
Sun 10:54:39 AM 23.2183 -68.6614 170° South 446 513 35,000  Level Miami Center
Sun 10:55:39 AM 23.0914 -68.6267 166° South 453 521 35,000  Level Miami Center
Sun 10:56:39 AM 22.9733 -68.5983 168° South 453 521 35,000  Level Miami Center
Sun 10:57:39 AM 22.8550 -68.5722 169° South 453 521 35,000  Level Miami Center
Sun 10:58:39 AM 22.7261 -68.5400 167° South 453 521 35,000  Level Miami Center
Sun 10:59:39 AM 22.6103 -68.5158 169° South 453 521 35,000  Level Miami Center
Sun 11:00:39 AM 22.4856 -68.4858 167° South 453 521 35,000  Level Miami Center
Sun 11:01:39 AM 22.3631 -68.4556 167° South 453 521 35,000  Level Miami Center
Sun 11:02:39 AM 22.2406 -68.4253 167° South 448 516 35,000  Level Miami Center
Sun 11:03:39 AM 22.1183 -68.3972 168° South 453 521 35,000  Level Miami Center
Sun 11:04:39 AM 21.9939 -68.3697 168° South 453 521 35,000  Level Miami Center
Sun 11:05:39 AM 21.8692 -68.3397 167° South 453 521 35,000  Level Miami Center
Sun 11:06:39 AM 21.7511 -68.3117 168° South 450 518 35,000  Level Miami Center
Sun 11:07:39 AM 21.6331 -68.2858 169° South 439 505 35,000  Level Miami Center
Sun 11:08:39 AM 21.5128 -68.2578 168° South 444 511 35,000  Level Miami Center
Sun 11:09:39 AM 21.3903 -68.2300 168° South 439 505 35,000  Level Miami Center
Sun 11:15:12 AM 20.7260 -68.1050 168° South 420 483 35,000  Level FlightAware ADS-B
Sun 11:15:47 AM 20.6640 -68.1270 198° South 421 484 35,000  Level FlightAware ADS-B
Sun 11:16:32 AM 20.5910 -68.1520 198° South 421 484 35,000  Level FlightAware ADS-B
Sun 11:17:22 AM 20.4840 -68.1920 199° South 423 487 35,000 -267 Level FlightAware ADS-B
Sun 11:18:02 AM 20.4110 -68.2190 199° South 422 486 34,600 -400 Descending FlightAware ADS-B
Sun 11:18:37 AM 20.3510 -68.2410 199° South 423 487 34,500 -71 Descending FlightAware ADS-B
Sun 11:19:27 AM 20.2720 -68.2700 199° South 423 487 34,500  Level FlightAware ADS-B
Sun 11:20:07 AM 20.2090 -68.2930 199° South 423 487 34,500  Level FlightAware ADS-B
Sun 11:20:47 AM 20.1460 -68.3160 199° South 423 487 34,500 -4,875 Level FlightAware ADS-B
Sun 11:21:27 AM 20.0390 -68.3540 198° South 399 459 28,000 -5,647 Descending FlightAware ADS-B
Sun 11:22:12 AM 19.9620 -68.3820 199° South 391 450 26,500 -1,000 Descending FlightAware ADS-B
Sun 11:22:57 AM 19.8950 -68.4050 198° South 391 450 26,500  Level FlightAware ADS-B
Sun 11:23:37 AM 19.8370 -68.4250 198° South 391 450 26,500  Level FlightAware ADS-B
Sun 11:24:17 AM 19.7780 -68.4450 198° South 391 450 26,500  Level FlightAware ADS-B
Sun 11:24:57 AM 19.7200 -68.4660 199° South 391 450 26,500  Level FlightAware ADS-B
Sun 11:25:37 AM 19.6610 -68.4860 198° South 391 450 26,500 -4,941 Level FlightAware ADS-B
Sun 11:26:39 AM 19.5081 -68.5531 198° South 375 432 18,100 -4,721 Descending Miami Center
Sun 11:27:39 AM 19.4244 -68.5844 199° South 375 432 16,900 -1,200 Descending Miami Center
Sun 11:30:00 AM 19.2670 -68.5668 163° South  Level FlightAware Approximate
Sun 11:37:00 AM 18.5674 -68.3634 155° Southeast  Level Estimated
Sun 11:38:00 AM 18.5674 -68.3634 155° Southeast  Level Estimated
Sun 11:39:00 AM 18.5674 -68.3634 155° Southeast  Level Estimated
Sun 11:40:00 AM 18.5674 -68.3634 155° Southeast  Level Estimated
Sun 11:41:00 AM 18.5674 -68.3634 155° Southeast  Level Estimated
Sun 11:42:00 AM 18.5674 -68.3634 155° Southeast  Level Estimated
Sun 11:43:00 AM 18.5674 -68.3634 155° Southeast  Level Estimated
Sun 11:44:00 AM 18.5674 -68.3634 155° Southeast  Level Estimated
Sun 11:45:00 AM 18.5674 -68.3634 155° Southeast  Level Estimated
Sun 11:46:00 AM 18.5674 -68.3634 155° Southeast  Level Estimated
Sun 11:47:00 AM 18.5674 -68.3634 155° Southeast  Level Estimated
Sun 11:48:00 AM 18.5674 -68.3634 155° Southeast  Level Estimated
Sun 11:49:00 AM 18.5674 -68.3634 155° Southeast  Level Estimated
Sun 11:50:00 AM 18.5674 -68.3634 155° Southeast  Level Estimated
Sun 11:51:00 AM 18.5674 -68.3634 155° Southeast  Level Estimated
Sun 11:52:00 AM 18.5674 -68.3634 155° Southeast  Level Estimated
Sun 11:53:00 AM 18.5674 -68.3634 155° Southeast  Level Estimated

Login

Don't have an account? Register now (free) for customized features, flight alerts, and more!